Time;durP1;ratioP1;P1;durP2;ratioP2;P2;SDS_P1;SDS_P2;PMS_P1;PMS_P2;Temp;Humidity;BMP_temperature;BMP_pressure;BME280_temperature;BME280_humidity;BME280_pressure;Samples;Min_cycle;Max_cycle;Signal;HPM_P1;HPM_P2
2023/01/02 00:01:42;;;;;;;1.35;1.25;;;3.70;99.90;;;;;;5094844;28;20024;-79
2023/01/02 00:04:08;;;;;;;1.55;1.00;;;3.60;99.90;;;;;;5094825;28;20051;-78
2023/01/02 00:06:36;;;;;;;1.30;1.20;;;3.50;99.90;;;;;;5093541;28;20338;-79
2023/01/02 00:09:04;;;;;;;1.65;1.38;;;3.50;99.90;;;;;;5094600;28;20562;-79
2023/01/02 00:11:30;;;;;;;4.53;1.70;;;3.40;99.90;;;;;;5096045;28;20100;-78
2023/01/02 00:13:56;;;;;;;2.17;1.25;;;3.40;99.90;;;;;;5097794;28;20028;-79
2023/01/02 00:16:23;;;;;;;2.95;1.23;;;3.40;99.90;;;;;;5094889;28;20019;-79
2023/01/02 00:18:49;;;;;;;2.10;1.27;;;3.40;99.90;;;;;;5094995;28;20028;-78
2023/01/02 00:21:16;;;;;;;1.77;1.17;;;3.40;99.90;;;;;;5093348;28;20469;-79
2023/01/02 00:23:41;;;;;;;1.98;1.38;;;3.30;99.90;;;;;;5094533;28;20039;-77
2023/01/02 00:26:08;;;;;;;1.02;0.80;;;3.30;99.90;;;;;;5092910;28;20127;-77
2023/01/02 00:28:35;;;;;;;1.48;1.38;;;3.30;99.90;;;;;;5094448;28;20488;-79
2023/01/02 00:31:11;;;;;;;1.20;1.05;;;3.20;99.90;;;;;;5094729;28;20137;-78
2023/01/02 00:33:37;;;;;;;1.90;1.10;;;3.20;99.90;;;;;;5081566;28;20366;-78
2023/01/02 00:36:05;;;;;;;1.13;0.90;;;3.10;99.90;;;;;;5094407;28;20021;-78
2023/01/02 00:38:31;;;;;;;1.10;0.82;;;3.10;99.90;;;;;;5094193;28;20476;-78
2023/01/02 00:40:57;;;;;;;0.82;0.80;;;3.10;99.90;;;;;;5090359;28;20032;-79
2023/01/02 00:43:23;;;;;;;2.70;1.08;;;3.20;99.90;;;;;;5094392;28;20031;-79
2023/01/02 00:45:49;;;;;;;0.88;0.60;;;;;;;;;;5094279;28;20385;-79
2023/01/02 00:48:15;;;;;;;1.02;0.93;;;2.90;99.90;;;;;;5091708;28;20028;-78
2023/01/02 00:50:40;;;;;;;1.52;1.27;;;2.90;99.90;;;;;;5093585;28;20031;-78
2023/01/02 00:53:06;;;;;;;1.10;0.90;;;2.90;99.90;;;;;;5094671;28;20028;-79
2023/01/02 00:55:32;;;;;;;1.60;1.23;;;2.90;99.90;;;;;;5093919;28;20500;-78
2023/01/02 00:57:58;;;;;;;1.42;1.00;;;2.90;99.90;;;;;;5096282;28;20024;-79
2023/01/02 01:00:24;;;;;;;2.45;1.33;;;2.90;99.90;;;;;;5094086;28;20020;-79
2023/01/02 01:02:53;;;;;;;0.98;0.88;;;2.90;99.90;;;;;;5113798;28;20084;-78
2023/01/02 01:05:19;;;;;;;1.20;1.10;;;2.90;99.90;;;;;;5114218;28;20407;-79
2023/01/02 01:07:44;;;;;;;1.50;1.40;;;2.90;99.90;;;;;;5112761;28;20034;-79
2023/01/02 01:10:10;;;;;;;1.55;1.27;;;2.90;99.90;;;;;;5112911;28;20389;-78
2023/01/02 01:12:36;;;;;;;1.50;1.25;;;2.90;99.90;;;;;;5113159;28;20059;-79
2023/01/02 01:15:02;;;;;;;1.98;1.58;;;2.90;99.90;;;;;;5095815;28;20468;-79
2023/01/02 01:17:28;;;;;;;1.70;1.60;;;2.90;99.90;;;;;;5092119;28;20028;-79
2023/01/02 01:19:54;;;;;;;1.88;1.55;;;2.90;99.90;;;;;;5093537;28;20024;-79
2023/01/02 01:22:20;;;;;;;4.25;1.50;;;2.90;99.90;;;;;;5092047;28;20012;-80
2023/01/02 01:24:46;;;;;;;1.85;1.40;;;2.90;99.90;;;;;;5093515;28;20031;-79
2023/01/02 01:27:11;;;;;;;2.00;1.80;;;2.90;99.90;;;;;;5092856;28;20044;-78
2023/01/02 01:29:37;;;;;;;2.00;1.70;;;2.90;99.90;;;;;;5093287;28;20489;-77
2023/01/02 01:32:03;;;;;;;1.38;1.23;;;2.90;99.90;;;;;;5093133;28;20104;-78
2023/01/02 01:34:29;;;;;;;2.35;1.30;;;2.80;99.90;;;;;;5093090;28;20024;-78
2023/01/02 01:36:55;;;;;;;1.42;1.08;;;2.80;99.90;;;;;;5091535;28;20473;-79
2023/01/02 01:39:21;;;;;;;1.55;1.40;;;2.80;99.90;;;;;;5092945;28;20017;-78
2023/01/02 01:41:46;;;;;;;1.92;1.23;;;2.80;99.90;;;;;;5093225;28;20017;-79
2023/01/02 01:44:41;;;;;;;3.70;1.70;;;2.80;99.90;;;;;;5092993;28;20035;-79
2023/01/02 01:47:16;;;;;;;1.88;1.15;;;2.80;99.90;;;;;;5092859;28;20028;-79
2023/01/02 01:49:43;;;;;;;1.27;1.17;;;2.70;99.90;;;;;;5092968;28;20028;-78
2023/01/02 01:52:16;;;;;;;1.27;1.10;;;2.80;99.90;;;;;;5093064;28;20116;-78
2023/01/02 01:55:14;;;;;;;1.33;1.08;;;2.80;99.90;;;;;;5093083;28;20066;-79
2023/01/02 01:57:56;;;;;;;1.40;1.00;;;2.80;99.90;;;;;;5091178;28;20030;-80
2023/01/02 02:00:22;;;;;;;2.08;0.90;;;2.80;99.90;;;;;;5085335;28;20447;-79
2023/01/02 02:02:51;;;;;;;1.70;1.02;;;2.80;99.90;;;;;;5093209;28;20474;-79
2023/01/02 02:05:22;;;;;;;1.05;0.70;;;2.80;99.90;;;;;;5093049;28;20108;-80
2023/01/02 02:08:23;;;;;;;0.85;0.68;;;2.80;99.90;;;;;;5092354;28;20435;-78
2023/01/02 02:10:50;;;;;;;1.08;0.93;;;2.80;99.90;;;;;;5074765;28;20058;-79
2023/01/02 02:13:16;;;;;;;1.80;0.90;;;2.80;99.90;;;;;;5092578;28;20469;-79
2023/01/02 02:15:50;;;;;;;1.67;1.58;;;2.80;99.90;;;;;;5092439;28;20032;-79
2023/01/02 02:18:46;;;;;;;1.20;0.90;;;2.80;99.90;;;;;;5092324;28;20244;-79
2023/01/02 02:21:36;;;;;;;0.93;0.60;;;2.80;99.90;;;;;;5092358;28;20078;-79
2023/01/02 02:24:21;;;;;;;0.63;0.40;;;2.70;99.90;;;;;;5079239;28;20138;-79
2023/01/02 02:27:15;;;;;;;0.95;0.73;;;2.70;99.90;;;;;;5092120;28;20040;-80
2023/01/02 02:30:07;;;;;;;1.10;0.70;;;2.70;99.90;;;;;;5092404;28;20063;-80
2023/01/02 02:33:16;;;;;;;0.43;0.43;;;2.70;99.90;;;;;;5092227;28;20040;-79
2023/01/02 02:35:48;;;;;;;0.52;0.50;;;2.60;99.90;;;;;;5009985;28;20030;-78
2023/01/02 02:39:01;;;;;;;0.50;0.40;;;2.60;99.90;;;;;;5078849;28;20032;-79
2023/01/02 02:41:26;;;;;;;0.30;0.30;;;2.60;99.90;;;;;;5092268;28;20028;-80
2023/01/02 02:44:01;;;;;;;0.95;0.88;;;2.50;99.90;;;;;;5092132;28;20120;-79
2023/01/02 02:46:58;;;;;;;0.40;0.40;;;2.50;99.90;;;;;;5106533;28;20027;-79
2023/01/02 02:49:29;;;;;;;0.20;0.20;;;;;;;;;;5091978;28;20506;-79
2023/01/02 02:52:00;;;;;;;0.38;0.38;;;2.60;99.90;;;;;;5091907;28;20016;-80
2023/01/02 02:54:56;;;;;;;1.55;0.28;;;2.60;99.90;;;;;;5090387;28;20049;-79
2023/01/02 02:57:23;;;;;;;0.30;0.30;;;2.60;99.90;;;;;;5091811;28;20023;-79
2023/01/02 02:59:50;;;;;;;0.20;0.20;;;2.50;99.90;;;;;;5090667;28;20397;-78
2023/01/02 03:02:17;;;;;;;0.75;0.30;;;2.50;99.90;;;;;;5092092;28;20060;-79
2023/01/02 03:04:46;;;;;;;0.82;0.45;;;2.50;99.90;;;;;;5092120;28;20024;-77
2023/01/02 03:07:12;;;;;;;0.70;0.50;;;2.50;99.90;;;;;;5092035;28;20024;-79
2023/01/02 03:09:49;;;;;;;0.38;0.38;;;2.40;99.90;;;;;;5091905;28;20043;-79
2023/01/02 03:12:33;;;;;;;;;;;2.50;99.90;;;;;;5093769;28;20362;-79
2023/01/02 03:15:14;;;;;;;0.70;0.40;;;2.50;99.90;;;;;;5095987;28;19904;-79
2023/01/02 03:18:16;;;;;;;0.30;0.30;;;2.40;99.90;;;;;;5096468;28;20020;-78
2023/01/02 03:20:54;;;;;;;0.50;0.40;;;2.40;99.90;;;;;;5098301;28;20024;-79
2023/01/02 03:23:24;;;;;;;0.77;0.40;;;2.40;99.90;;;;;;5094068;28;20476;-80
2023/01/02 03:25:51;;;;;;;0.82;0.43;;;2.30;99.90;;;;;;5095484;28;20032;-78
2023/01/02 03:28:36;;;;;;;0.32;0.30;;;2.40;99.90;;;;;;5095631;28;20036;-79
2023/01/02 03:31:21;;;;;;;0.88;0.60;;;2.30;99.90;;;;;;5084308;28;20058;-79
2023/01/02 03:34:11;;;;;;;1.80;0.38;;;2.30;99.90;;;;;;5095685;28;20384;-80
2023/01/02 03:37:14;;;;;;;0.68;0.55;;;2.20;99.90;;;;;;5095671;28;20035;-78
2023/01/02 03:40:06;;;;;;;0.40;0.40;;;2.20;99.90;;;;;;5094740;28;20020;-79
2023/01/02 03:42:53;;;;;;;0.70;0.60;;;2.10;99.90;;;;;;5096345;28;20490;-79
2023/01/02 03:45:54;;;;;;;1.45;0.93;;;2.10;99.90;;;;;;5091924;28;20467;-79
2023/01/02 03:48:20;;;;;;;0.77;0.50;;;2.10;99.90;;;;;;5100496;28;20123;-79
2023/01/02 03:50:53;;;;;;;0.85;0.63;;;2.10;99.90;;;;;;5094866;28;20467;-78
2023/01/02 03:53:56;;;;;;;0.60;0.57;;;2.00;99.90;;;;;;5095103;28;20357;-79
2023/01/02 03:56:58;;;;;;;1.58;0.70;;;2.00;99.90;;;;;;5082239;28;20330;-78
2023/01/02 03:59:42;;;;;;;1.38;0.95;;;2.00;99.90;;;;;;5094914;28;20015;-78
2023/01/02 04:02:33;;;;;;;1.33;0.65;;;2.00;99.90;;;;;;5095039;28;20040;-79
2023/01/02 04:05:21;;;;;;;3.58;1.30;;;1.90;99.90;;;;;;5082793;28;20024;-78
2023/01/02 04:07:59;;;;;;;1.13;0.50;;;1.90;99.90;;;;;;5094542;28;20095;-79
2023/01/02 04:10:26;;;;;;;4.30;1.20;;;;;;;;;;5094955;28;20046;-79
2023/01/02 04:12:55;;;;;;;1.50;0.82;;;1.70;99.90;;;;;;5094602;28;20017;-79
2023/01/02 04:15:40;;;;;;;2.22;0.98;;;1.70;99.90;;;;;;5094704;28;20055;-79
2023/01/02 04:18:13;;;;;;;3.78;1.02;;;1.60;99.90;;;;;;5095095;28;20024;-79
2023/01/02 04:20:42;;;;;;;1.67;0.68;;;1.70;99.90;;;;;;5093592;28;20458;-78
2023/01/02 04:23:30;;;;;;;1.15;0.85;;;1.60;99.90;;;;;;5093473;28;20047;-80
2023/01/02 04:26:14;;;;;;;;;;;1.50;99.90;;;;;;5083387;28;20020;-79
2023/01/02 04:28:40;;;;;;;1.23;0.75;;;1.50;99.90;;;;;;5094302;28;19912;-80
2023/01/02 04:31:18;;;;;;;0.63;0.60;;;1.50;99.90;;;;;;5094473;28;20026;-78
2023/01/02 04:34:03;;;;;;;0.93;0.80;;;1.40;99.90;;;;;;5094632;28;20519;-78
2023/01/02 04:36:47;;;;;;;0.60;0.50;;;1.40;99.90;;;;;;5094232;28;20012;-79
2023/01/02 04:39:13;;;;;;;0.85;0.70;;;1.40;99.90;;;;;;5080024;28;20136;-80
2023/01/02 04:41:58;;;;;;;4.85;1.10;;;1.40;99.90;;;;;;5092797;28;20057;-78
2023/01/02 04:44:23;;;;;;;2.08;1.45;;;1.30;99.90;;;;;;5080821;28;20027;-78
2023/01/02 04:46:49;;;;;;;1.63;0.98;;;1.30;99.90;;;;;;5093159;28;20020;-79
2023/01/02 04:49:33;;;;;;;1.73;1.00;;;1.30;99.90;;;;;;5092499;28;20075;-79
2023/01/02 04:52:18;;;;;;;0.65;0.52;;;1.30;99.90;;;;;;5093943;28;20022;-79
2023/01/02 04:55:21;;;;;;;0.98;0.80;;;1.30;99.90;;;;;;5081547;28;20030;-81
2023/01/02 04:58:26;;;;;;;6.45;1.90;;;1.30;99.90;;;;;;5093732;28;20020;-80
2023/01/02 05:00:53;;;;;;;1.75;0.60;;;1.30;99.90;;;;;;5093665;28;20111;-79
2023/01/02 05:03:56;;;;;;;2.28;0.88;;;1.20;99.90;;;;;;5093634;28;20027;-79
2023/01/02 05:06:22;;;;;;;3.88;1.35;;;1.20;99.90;;;;;;5093481;28;20546;-79
2023/01/02 05:09:06;;;;;;;1.00;0.65;;;1.20;99.90;;;;;;5093584;28;20040;-79
2023/01/02 05:11:32;;;;;;;1.23;0.82;;;1.20;99.90;;;;;;5079764;28;20019;-82
2023/01/02 05:14:16;;;;;;;2.78;0.73;;;1.10;99.90;;;;;;5093455;28;20111;-79
2023/01/02 05:16:42;;;;;;;0.50;0.50;;;1.10;99.90;;;;;;5080127;28;20085;-80
2023/01/02 05:19:08;;;;;;;1.05;0.43;;;1.10;99.90;;;;;;5093313;28;20435;-80
2023/01/02 05:25:02;;;;;;;2.50;0.90;;;1.10;99.90;;;;;;5093584;28;20035;-78
2023/01/02 05:27:28;;;;;;;1.20;0.80;;;1.10;99.90;;;;;;5080316;28;20052;-79
2023/01/02 05:30:12;;;;;;;2.75;1.15;;;1.20;99.90;;;;;;5094582;28;20035;-79
2023/01/02 05:33:15;;;;;;;1.17;0.55;;;1.00;99.90;;;;;;5084647;28;20077;-78
2023/01/02 05:35:41;;;;;;;0.70;0.70;;;1.10;99.90;;;;;;5092610;28;20016;-79
2023/01/02 05:38:25;;;;;;;2.13;0.90;;;1.00;99.90;;;;;;5093325;28;20055;-79
2023/01/02 05:41:11;;;;;;;2.83;0.70;;;1.00;99.90;;;;;;5092771;28;20107;-78
2023/01/02 05:43:38;;;;;;;8.50;1.30;;;1.10;99.90;;;;;;5092640;28;20040;-78
2023/01/02 05:46:11;;;;;;;1.80;0.90;;;;;;;;;;5093038;28;20362;-79
2023/01/02 05:48:38;;;;;;;3.53;0.70;;;0.90;99.90;;;;;;5092869;28;20028;-79
2023/01/02 05:51:05;;;;;;;3.30;1.05;;;0.90;99.90;;;;;;5095500;28;20043;-78
2023/01/02 05:53:56;;;;;;;2.90;0.75;;;1.00;99.90;;;;;;5092974;28;20389;-79
2023/01/02 05:56:40;;;;;;;1.98;0.70;;;0.90;99.90;;;;;;5080051;28;20397;-79
2023/01/02 05:59:43;;;;;;;2.80;1.73;;;0.80;99.90;;;;;;5092768;28;20023;-80
2023/01/02 06:02:09;;;;;;;3.60;0.90;;;0.90;99.90;;;;;;5092608;28;20385;-80
2023/01/02 06:05:12;;;;;;;3.00;0.95;;;0.90;99.90;;;;;;5092480;28;20020;-80
2023/01/02 06:08:15;;;;;;;1.83;0.70;;;0.70;99.90;;;;;;5092167;28;20036;-79
2023/01/02 06:11:07;;;;;;;1.27;0.63;;;0.70;99.90;;;;;;5092648;28;20102;-80
2023/01/02 06:13:34;;;;;;;1.05;0.60;;;0.70;99.90;;;;;;5092798;28;20503;-78
2023/01/02 06:16:37;;;;;;;2.28;0.70;;;0.70;99.90;;;;;;5093148;28;20020;-80
2023/01/02 06:19:22;;;;;;;1.67;1.00;;;;;;;;;;5092288;28;20499;-82
2023/01/02 06:22:25;;;;;;;2.47;0.88;;;0.70;99.90;;;;;;5078965;28;20187;-79
2023/01/02 06:25:28;;;;;;;3.25;1.17;;;0.70;99.90;;;;;;5092603;28;20024;-79
2023/01/02 06:27:57;;;;;;;3.35;1.23;;;0.60;99.90;;;;;;5082901;28;20109;-80
2023/01/02 06:30:41;;;;;;;2.08;1.10;;;0.60;99.90;;;;;;5092080;28;20051;-79
2023/01/02 06:33:07;;;;;;;3.33;0.60;;;0.60;99.90;;;;;;5090838;28;20430;-80
2023/01/02 06:36:10;;;;;;;2.30;0.82;;;0.60;99.90;;;;;;5092033;28;20112;-81
2023/01/02 06:38:37;;;;;;;1.35;0.82;;;0.60;99.90;;;;;;5092089;28;20422;-81
2023/01/02 06:41:21;;;;;;;1.77;0.90;;;0.60;99.90;;;;;;5092167;28;20032;-79
2023/01/02 06:44:25;;;;;;;1.90;1.10;;;0.60;99.90;;;;;;5092580;28;20059;-80
2023/01/02 06:47:11;;;;;;;2.50;1.42;;;0.60;99.90;;;;;;5093423;28;20020;-82
2023/01/02 06:49:55;;;;;;;2.28;1.50;;;0.60;99.90;;;;;;5079354;28;20028;-80
2023/01/02 06:52:21;;;;;;;0.77;0.77;;;0.60;99.90;;;;;;5091884;28;20445;-81
2023/01/02 06:55:05;;;;;;;3.10;1.23;;;0.60;99.90;;;;;;5090873;28;20068;-80
2023/01/02 06:57:50;;;;;;;2.70;1.40;;;0.60;99.90;;;;;;5091882;28;20024;-81
2023/01/02 07:00:34;;;;;;;1.02;0.60;;;0.60;99.90;;;;;;5083260;28;20028;-80
2023/01/02 07:03:18;;;;;;;2.42;1.48;;;0.60;99.90;;;;;;5090705;28;20039;-80
2023/01/02 07:05:45;;;;;;;1.55;1.02;;;0.60;99.90;;;;;;5090656;28;20024;-80
2023/01/02 07:08:30;;;;;;;2.45;1.30;;;0.60;99.90;;;;;;5091791;28;20032;-80
2023/01/02 07:11:23;;;;;;;1.60;0.95;;;0.60;99.90;;;;;;5090952;28;20031;-79
2023/01/02 07:13:53;;;;;;;1.58;0.82;;;0.70;99.90;;;;;;5083358;28;20020;-80
2023/01/02 07:16:37;;;;;;;3.30;1.20;;;0.70;99.90;;;;;;5098085;28;20136;-81
2023/01/02 07:19:03;;;;;;;2.17;1.10;;;0.70;99.90;;;;;;5097798;28;20115;-78
2023/01/02 07:21:30;;;;;;;2.60;0.90;;;0.60;99.90;;;;;;5092475;28;20047;-80
2023/01/02 07:24:14;;;;;;;2.35;0.80;;;0.70;99.90;;;;;;5098506;28;20035;-81
2023/01/02 07:26:59;;;;;;;3.28;1.00;;;0.70;99.90;;;;;;5092154;28;20094;-79
2023/01/02 07:29:25;;;;;;;1.92;1.10;;;0.70;99.90;;;;;;5092236;28;20371;-79
2023/01/02 07:32:09;;;;;;;2.38;1.20;;;0.70;99.90;;;;;;5091906;28;20028;-78
2023/01/02 07:35:12;;;;;;;4.60;1.60;;;0.70;99.90;;;;;;5092232;28;20043;-80
2023/01/02 07:38:15;;;;;;;2.63;0.77;;;0.70;99.90;;;;;;5078719;28;20024;-79
2023/01/02 07:41:18;;;;;;;2.40;1.02;;;0.70;99.90;;;;;;5091624;28;20074;-79
2023/01/02 07:43:45;;;;;;;1.98;0.80;;;0.70;99.90;;;;;;5090518;28;20481;-80
2023/01/02 07:46:48;;;;;;;1.27;1.07;;;0.70;99.90;;;;;;5092668;28;20020;-80
2023/01/02 07:49:32;;;;;;;2.95;1.27;;;0.70;99.90;;;;;;5091990;28;20031;-78
2023/01/02 07:52:36;;;;;;;3.75;1.85;;;0.80;99.90;;;;;;5091523;28;20024;-79
2023/01/02 07:55:20;;;;;;;2.75;1.20;;;0.80;99.90;;;;;;5081588;28;20137;-80
2023/01/02 07:57:47;;;;;;;4.90;1.80;;;0.80;99.80;;;;;;5091872;28;20115;-81
2023/01/02 08:00:32;;;;;;;3.38;1.58;;;0.80;99.50;;;;;;5095207;28;20024;-81
2023/01/02 08:03:16;;;;;;;3.90;1.42;;;0.90;99.10;;;;;;5093745;28;20032;-79
2023/01/02 08:05:42;;;;;;;3.17;1.08;;;1.00;98.80;;;;;;5094956;28;20031;-80
2023/01/02 08:08:45;;;;;;;2.17;1.40;;;1.10;98.70;;;;;;5094910;28;20044;-80
2023/01/02 08:11:29;;;;;;;5.43;1.10;;;1.50;98.40;;;;;;5094870;28;20024;-79
2023/01/02 08:13:56;;;;;;;2.40;2.20;;;2.00;97.50;;;;;;5094867;28;20020;-80
2023/01/02 08:16:40;;;;;;;3.77;1.10;;;2.30;96.30;;;;;;5094896;28;20077;-80
2023/01/02 08:19:06;;;;;;;4.75;1.02;;;2.60;95.90;;;;;;5094946;28;20020;-78
2023/01/02 08:21:32;;;;;;;2.15;1.05;;;2.90;95.40;;;;;;5094572;28;20020;-78
2023/01/02 08:24:16;;;;;;;2.17;0.95;;;3.20;94.20;;;;;;5094527;28;20020;-79
2023/01/02 08:26:42;;;;;;;4.95;1.45;;;3.50;94.10;;;;;;5094383;28;20048;-80
2023/01/02 08:29:08;;;;;;;3.85;1.20;;;3.90;93.10;;;;;;5094410;28;20046;-80
2023/01/02 08:31:53;;;;;;;2.08;1.20;;;4.20;92.30;;;;;;5094641;28;20024;-80
2023/01/02 08:34:18;;;;;;;1.35;0.70;;;4.30;90.80;;;;;;5081562;28;20040;-80
2023/01/02 08:37:03;;;;;;;2.55;1.13;;;4.20;90.50;;;;;;5094404;28;20062;-79
2023/01/02 08:39:47;;;;;;;5.80;0.80;;;4.00;90.10;;;;;;5082467;28;20439;-80
2023/01/02 08:42:32;;;;;;;2.13;0.65;;;4.10;90.10;;;;;;5093874;28;20123;-79
2023/01/02 08:45:35;;;;;;;3.15;1.30;;;4.10;89.20;;;;;;5094341;28;20123;-80
2023/01/02 08:48:01;;;;;;;2.88;1.40;;;3.90;89.10;;;;;;5082258;28;20110;-79
2023/01/02 08:50:28;;;;;;;2.22;1.20;;;3.70;89.00;;;;;;5094475;28;20103;-80
2023/01/02 08:53:31;;;;;;;1.10;0.88;;;3.70;89.40;;;;;;5097022;28;20024;-80
2023/01/02 08:56:16;;;;;;;2.63;1.08;;;3.60;88.60;;;;;;5096494;28;20550;-80
2023/01/02 08:59:20;;;;;;;2.10;1.00;;;3.70;89.40;;;;;;5094367;28;20024;-80
2023/01/02 09:02:04;;;;;;;1.45;0.98;;;3.60;89.00;;;;;;5083984;28;20024;-81
2023/01/02 09:04:30;;;;;;;4.15;1.20;;;3.60;87.90;;;;;;5096459;28;20066;-79
2023/01/02 09:07:15;;;;;;;2.05;1.10;;;3.50;88.90;;;;;;5097290;28;20496;-80
2023/01/02 09:09:40;;;;;;;4.53;1.00;;;3.70;89.00;;;;;;5093099;28;20374;-80
2023/01/02 09:12:06;;;;;;;2.88;0.85;;;3.80;87.70;;;;;;5093590;28;20027;-81
2023/01/02 09:14:50;;;;;;;1.17;1.00;;;4.00;86.70;;;;;;5093568;28;20713;-81
2023/01/02 09:17:16;;;;;;;1.27;1.00;;;4.10;86.40;;;;;;5093938;28;20484;-79
2023/01/02 09:20:01;;;;;;;1.67;1.00;;;4.40;85.70;;;;;;5093740;28;20031;-80
2023/01/02 09:22:29;;;;;;;4.85;1.38;;;4.70;84.60;;;;;;5093329;28;20141;-79
2023/01/02 09:24:55;;;;;;;1.20;0.77;;;5.00;83.00;;;;;;5093172;28;20028;-81
2023/01/02 09:27:21;;;;;;;1.73;0.98;;;;;;;;;;5092888;28;20051;-80
2023/01/02 09:29:47;;;;;;;4.40;1.20;;;5.30;80.30;;;;;;5093111;28;20047;-79
2023/01/02 09:32:13;;;;;;;5.05;1.15;;;5.20;79.20;;;;;;5093120;28;20145;-80
2023/01/02 09:34:39;;;;;;;2.67;0.90;;;5.10;78.40;;;;;;5093162;28;20056;-79
2023/01/02 09:37:23;;;;;;;3.17;1.02;;;4.90;78.20;;;;;;5092988;28;20481;-81
2023/01/02 09:39:49;;;;;;;2.38;1.80;;;4.50;78.50;;;;;;5093121;28;20024;-80
2023/01/02 09:42:16;;;;;;;2.28;1.38;;;4.00;79.20;;;;;;5092696;28;20016;-79
2023/01/02 09:45:04;;;;;;;2.00;1.13;;;3.70;80.70;;;;;;5093058;28;20080;-80
2023/01/02 09:47:31;;;;;;;1.00;0.85;;;3.30;81.50;;;;;;5092979;28;20483;-81
2023/01/02 09:50:24;;;;;;;6.28;1.90;;;3.20;90.30;;;;;;5092009;28;20442;-81
2023/01/02 09:53:09;;;;;;;3.60;1.25;;;2.80;83.30;;;;;;5092816;28;20039;-80
2023/01/02 09:55:54;;;;;;;2.72;1.38;;;2.60;84.20;;;;;;5092861;28;20023;-80
2023/01/02 09:58:25;;;;;;;3.00;1.80;;;2.40;84.10;;;;;;5091577;28;20473;-80
2023/01/02 10:01:21;;;;;;;2.35;0.70;;;2.50;87.30;;;;;;5092744;28;20107;-79
2023/01/02 10:04:16;;;;;;;2.22;1.38;;;2.20;85.20;;;;;;5092521;28;20016;-81
2023/01/02 10:07:06;;;;;;;1.35;1.10;;;2.10;85.20;;;;;;5080904;28;20055;-81
2023/01/02 10:09:51;;;;;;;1.75;0.85;;;2.00;85.30;;;;;;5092717;28;20097;-80
2023/01/02 10:12:58;;;;;;;3.40;1.20;;;2.20;86.20;;;;;;5092444;28;20031;-79
2023/01/02 10:15:45;;;;;;;1.20;0.90;;;2.90;86.60;;;;;;5060535;28;20447;-81
2023/01/02 10:18:37;;;;;;;1.77;1.02;;;3.80;84.90;;;;;;5092254;28;20354;-82
2023/01/02 10:21:26;;;;;;;0.80;0.80;;;4.70;81.40;;;;;;5091566;28;20131;-78
2023/01/02 10:24:30;;;;;;;4.50;1.25;;;5.70;78.70;;;;;;5092187;28;20111;-80
2023/01/02 10:27:33;;;;;;;2.50;1.17;;;6.50;73.30;;;;;;5016629;28;20073;-81
2023/01/02 10:30:17;;;;;;;2.05;0.90;;;;;;;;;;5093119;28;20032;-80
2023/01/02 10:33:04;;;;;;;2.40;1.02;;;7.40;71.10;;;;;;5080916;28;20024;-81
2023/01/02 10:36:10;;;;;;;2.47;1.48;;;6.80;66.70;;;;;;5092205;28;20048;-81
2023/01/02 10:38:57;;;;;;;2.58;1.27;;;6.10;69.40;;;;;;5091279;28;20489;-82
2023/01/02 10:41:46;;;;;;;1.80;1.20;;;5.20;70.80;;;;;;5092529;28;20485;-80
2023/01/02 10:44:26;;;;;;;4.22;0.98;;;4.40;72.20;;;;;;5092749;28;20054;-80
2023/01/02 10:47:11;;;;;;;2.38;1.10;;;;;;;;;;5093797;28;20020;-79
2023/01/02 10:50:14;;;;;;;3.88;1.88;;;3.50;74.60;;;;;;5094480;28;20473;-81
2023/01/02 10:53:08;;;;;;;4.82;2.83;;;3.20;76.40;;;;;;5096357;28;20020;-80
2023/01/02 10:56:12;;;;;;;4.05;1.60;;;2.90;77.70;;;;;;5092596;28;20099;-80
2023/01/02 10:59:02;;;;;;;4.03;1.10;;;2.60;78.50;;;;;;5091881;28;20024;-79
2023/01/02 11:01:29;;;;;;;2.80;1.10;;;2.50;79.50;;;;;;5070614;28;20020;-80
2023/01/02 11:04:20;;;;;;;2.40;1.10;;;2.30;80.00;;;;;;5091767;28;20496;-84
2023/01/02 11:07:04;;;;;;;1.63;0.88;;;2.20;80.70;;;;;;5090845;28;20287;-81
2023/01/02 11:09:50;;;;;;;1.13;0.90;;;2.10;81.50;;;;;;5091680;28;20506;-81
2023/01/02 11:12:16;;;;;;;1.02;0.70;;;1.90;81.60;;;;;;5092011;28;20441;-79
2023/01/02 11:14:42;;;;;;;2.47;1.00;;;1.80;82.30;;;;;;5090821;28;20115;-80
2023/01/02 11:17:28;;;;;;;3.08;1.40;;;1.80;83.20;;;;;;5091263;28;20031;-80
2023/01/02 11:20:13;;;;;;;2.00;1.13;;;1.70;84.10;;;;;;5096315;28;20032;-80
2023/01/02 11:23:16;;;;;;;2.20;1.30;;;1.70;84.60;;;;;;5092228;28;20031;-80
2023/01/02 11:25:46;;;;;;;6.78;2.05;;;1.70;84.80;;;;;;5078938;28;20052;-79
2023/01/02 11:28:21;;;;;;;3.90;1.67;;;1.60;85.20;;;;;;5091587;28;20071;-80
2023/01/02 11:30:53;;;;;;;0.77;0.63;;;1.60;85.60;;;;;;5091666;28;20024;-79
2023/01/02 11:33:33;;;;;;;3.67;1.23;;;1.50;85.40;;;;;;5092872;28;20020;-80
2023/01/02 11:36:36;;;;;;;3.80;1.30;;;1.50;86.00;;;;;;5082888;28;20020;-81
2023/01/02 11:39:31;;;;;;;1.65;0.88;;;1.50;86.10;;;;;;5095539;28;20024;-79
2023/01/02 11:45:15;;;;;;;2.80;1.35;;;1.40;86.30;;;;;;5095872;28;20146;-81
2023/01/02 11:48:01;;;;;;;2.58;1.40;;;1.30;87.60;;;;;;5095691;28;20023;-81
2023/01/02 11:50:47;;;;;;;1.55;1.13;;;1.50;90.70;;;;;;5093673;28;20032;-81
2023/01/02 11:53:16;;;;;;;3.97;1.10;;;1.40;90.70;;;;;;5095624;28;20405;-80
2023/01/02 11:56:04;;;;;;;1.92;1.08;;;1.40;91.70;;;;;;5095611;28;20021;-79
2023/01/02 11:58:29;;;;;;;2.20;1.05;;;1.30;90.70;;;;;;5097138;28;20051;-81
2023/01/02 12:01:19;;;;;;;4.22;2.08;;;1.20;89.30;;;;;;5097269;28;20039;-82
2023/01/02 12:04:22;;;;;;;2.75;1.10;;;1.30;90.00;;;;;;5095189;28;20031;-80
2023/01/02 12:07:16;;;;;;;4.80;1.90;;;1.10;89.40;;;;;;5110768;28;20114;-80
2023/01/02 12:09:51;;;;;;;1.23;0.85;;;1.20;90.50;;;;;;5115342;28;20038;-80
2023/01/02 12:12:53;;;;;;;3.80;1.60;;;1.20;90.80;;;;;;5110460;28;20040;-79
2023/01/02 12:15:31;;;;;;;2.25;1.05;;;1.20;91.20;;;;;;5079462;27;20036;-80
2023/01/02 12:18:19;;;;;;;2.63;1.35;;;1.30;92.40;;;;;;5115636;28;20477;-80
2023/01/02 12:21:23;;;;;;;3.28;1.60;;;1.20;90.90;;;;;;5110861;28;20028;-81
2023/01/02 12:24:26;;;;;;;1.73;1.08;;;1.20;91.00;;;;;;5109739;28;20031;-80
2023/01/02 12:27:08;;;;;;;2.50;1.13;;;1.20;91.20;;;;;;5093152;28;20051;-79
2023/01/02 12:29:52;;;;;;;2.03;1.17;;;1.20;91.50;;;;;;5094912;28;20039;-80
2023/01/02 12:32:40;;;;;;;4.47;1.73;;;1.10;91.40;;;;;;5094310;28;20020;-82
2023/01/02 12:35:24;;;;;;;3.67;1.33;;;1.10;91.80;;;;;;5095926;28;20049;-80
2023/01/02 12:38:16;;;;;;;6.85;1.63;;;1.00;92.10;;;;;;5092526;28;20361;-79
2023/01/02 12:41:19;;;;;;;2.55;1.25;;;1.10;95.10;;;;;;5098924;28;20092;-80
2023/01/02 12:44:06;;;;;;;1.60;1.23;;;1.10;92.70;;;;;;5094761;28;20020;-79
2023/01/02 12:46:53;;;;;;;3.25;1.77;;;1.10;94.70;;;;;;5093993;28;20031;-80
2023/01/02 12:49:28;;;;;;;3.50;1.42;;;0.90;91.10;;;;;;5092667;28;20036;-80
2023/01/02 12:52:13;;;;;;;2.25;1.23;;;0.90;94.60;;;;;;5095275;28;20040;-82
2023/01/02 12:54:57;;;;;;;5.03;2.70;;;;;;;;;;5081582;28;20016;-80
2023/01/02 12:57:50;;;;;;;2.25;2.08;;;1.00;97.30;;;;;;5094070;28;20165;-80
2023/01/02 13:00:47;;;;;;;2.72;1.55;;;1.00;96.20;;;;;;5084019;28;20028;-80
2023/01/02 13:03:28;;;;;;;2.75;1.00;;;0.70;90.40;;;;;;5081985;28;20043;-81
2023/01/02 13:06:16;;;;;;;5.45;1.50;;;0.70;90.70;;;;;;5093894;28;20025;-81
2023/01/02 13:08:46;;;;;;;3.38;1.48;;;0.60;90.80;;;;;;5093740;28;20032;-82
2023/01/02 13:11:22;;;;;;;1.05;0.70;;;0.60;90.90;;;;;;5093750;28;20020;-80
2023/01/02 13:14:07;;;;;;;3.25;1.30;;;0.60;91.00;;;;;;5093803;28;20024;-80
2023/01/02 13:16:34;;;;;;;4.00;2.10;;;0.60;91.10;;;;;;5093591;28;20088;-79
2023/01/02 13:19:39;;;;;;;4.70;2.28;;;0.50;91.20;;;;;;5093801;28;20135;-81
2023/01/02 13:22:38;;;;;;;3.33;1.88;;;0.50;91.30;;;;;;5056001;28;20024;-81
2023/01/02 13:25:23;;;;;;;4.82;2.10;;;0.50;91.40;;;;;;5097765;28;20020;-81
2023/01/02 13:27:57;;;;;;;6.35;1.38;;;0.40;91.50;;;;;;5093325;28;20155;-80
2023/01/02 13:30:43;;;;;;;3.28;1.10;;;0.40;91.60;;;;;;5093465;28;20054;-80
2023/01/02 13:33:33;;;;;;;5.55;1.58;;;0.30;91.80;;;;;;5102349;28;20099;-79
2023/01/02 13:36:01;;;;;;;4.47;1.40;;;0.40;91.90;;;;;;5080415;28;20028;-80
2023/01/02 13:39:04;;;;;;;2.30;1.40;;;0.30;92.00;;;;;;5093077;28;20020;-80
2023/01/02 13:44:36;;;;;;;2.50;1.40;;;0.20;92.20;;;;;;5080864;28;20074;-79
2023/01/02 13:47:17;;;;;;;2.65;1.50;;;0.20;92.20;;;;;;5093310;28;20024;-81
2023/01/02 13:49:43;;;;;;;2.83;1.27;;;0.20;92.30;;;;;;5091883;28;20092;-81
2023/01/02 13:52:38;;;;;;;5.07;1.48;;;0.20;92.40;;;;;;5093016;28;20099;-82
2023/01/02 13:55:24;;;;;;;2.85;1.35;;;0.20;92.50;;;;;;5091641;28;20477;-81
2023/01/02 13:58:16;;;;;;;2.22;1.40;;;0.20;92.50;;;;;;5092853;28;20028;-81
2023/01/02 14:01:05;;;;;;;2.95;1.25;;;0.20;92.50;;;;;;5092267;28;20042;-79
2023/01/02 14:04:14;;;;;;;3.55;1.23;;;0.20;92.60;;;;;;5092600;28;20027;-82
2023/01/02 14:06:46;;;;;;;2.40;1.00;;;0.20;92.60;;;;;;5080342;28;20106;-81
2023/01/02 14:09:50;;;;;;;1.98;1.45;;;0.10;92.70;;;;;;5092656;28;20032;-82
2023/01/02 14:12:16;;;;;;;4.97;1.20;;;0.10;92.80;;;;;;5092713;28;20086;-79
2023/01/02 14:15:02;;;;;;;3.35;1.17;;;0.10;92.80;;;;;;5092741;28;20032;-80
2023/01/02 14:18:09;;;;;;;1.52;0.90;;;0.10;92.70;;;;;;5094181;28;20016;-78
2023/01/02 14:20:41;;;;;;;4.13;1.05;;;0.10;92.80;;;;;;5075949;28;20077;-80